Time;durP1;ratioP1;P1;durP2;ratioP2;P2;SDS_P1;SDS_P2;PMS_P1;PMS_P2;Temp;Humidity;BMP_temperature;BMP_pressure;BME280_temperature;BME280_humidity;BME280_pressure;Samples;Min_cycle;Max_cycle;Signal;HPM_P1;HPM_P2
2023/04/22 00:02:18;;;;;;;2.63;2.17;;;;;;;;;;5010151;28;20247;-75
2023/04/22 00:04:45;;;;;;;2.73;2.10;;;;;;;;;;5010831;28;20226;-75
2023/04/22 00:07:11;;;;;;;3.00;2.30;;;;;;;;;;5012174;28;20175;-75
2023/04/22 00:09:38;;;;;;;2.87;2.30;;;;;;;;;;5010865;28;20187;-75
2023/04/22 00:12:04;;;;;;;2.90;2.60;;;;;;;;;;5000839;28;20626;-75
2023/04/22 00:14:31;;;;;;;2.27;2.07;;;;;;;;;;4998684;28;20237;-75
2023/04/22 00:16:57;;;;;;;3.67;2.37;;;;;;;;;;5026467;28;20195;-75
2023/04/22 00:19:23;;;;;;;2.30;2.10;;;;;;;;;;5010315;28;20286;-75
2023/04/22 00:21:50;;;;;;;4.27;2.33;;;;;;;;;;5011918;28;20305;-75
2023/04/22 00:24:16;;;;;;;2.80;2.57;;;;;;;;;;5010886;28;20191;-75
2023/04/22 00:26:42;;;;;;;2.73;2.53;;;;;;;;;;5011826;28;20221;-75
2023/04/22 00:29:08;;;;;;;3.63;2.53;;;;;;;;;;5010154;28;20640;-75
2023/04/22 00:31:34;;;;;;;3.30;3.00;;;;;;;;;;5010402;28;20277;-75
2023/04/22 00:34:00;;;;;;;3.10;2.80;;;;;;;;;;5009046;28;20619;-75
2023/04/22 00:36:26;;;;;;;3.10;2.80;;;;;;;;;;5011808;28;20570;-75
2023/04/22 00:38:53;;;;;;;5.07;3.20;;;;;;;;;;5010877;28;20183;-75
2023/04/22 00:41:19;;;;;;;3.60;3.00;;;;;;;;;;5010357;28;20202;-75
2023/04/22 00:43:46;;;;;;;4.00;3.70;;;;;;;;;;5005351;28;20191;-75
2023/04/22 00:46:12;;;;;;;3.67;3.10;;;;;;;;;;4994078;28;20265;-75
2023/04/22 00:48:38;;;;;;;4.87;3.60;;;;;;;;;;5010320;28;20185;-75
2023/04/22 00:51:05;;;;;;;3.50;3.20;;;;;;;;;;5011420;28;20206;-75
2023/04/22 00:53:31;;;;;;;3.97;3.10;;;;;;;;;;5006612;28;20179;-75
2023/04/22 00:55:58;;;;;;;5.30;3.40;;;;;;;;;;5010131;28;20282;-75
2023/04/22 00:58:28;;;;;;;4.40;3.67;;;;;;;;;;5010242;28;20191;-75
2023/04/22 01:00:55;;;;;;;3.93;3.53;;;;;;;;;;5009572;28;20237;-75
2023/04/22 01:03:22;;;;;;;4.43;3.97;;;;;;;;;;4971124;28;20187;-75
2023/04/22 01:05:49;;;;;;;5.63;3.83;;;;;;;;;;5009732;28;20195;-75
2023/04/22 01:08:15;;;;;;;4.30;3.90;;;;;;;;;;5009943;28;20171;-75
2023/04/22 01:10:41;;;;;;;4.70;3.60;;;;;;;;;;4999920;28;20184;-75
2023/04/22 01:13:08;;;;;;;4.20;3.30;;;;;;;;;;5005559;28;20275;-75
2023/04/22 01:15:34;;;;;;;4.10;3.77;;;;;;;;;;5011019;28;20289;-75
2023/04/22 01:18:01;;;;;;;4.07;3.60;;;;;;;;;;5010765;28;20213;-75
2023/04/22 01:20:31;;;;;;;4.00;3.60;;;;;;;;;;5011259;28;20190;-75
2023/04/22 01:23:03;;;;;;;4.40;4.00;;;;;;;;;;5010461;28;20210;-75
2023/04/22 01:25:29;;;;;;;3.77;3.40;;;;;;;;;;4993851;28;20239;-75
2023/04/22 01:27:56;;;;;;;5.37;3.87;;;;;;;;;;5009994;28;20353;-75
2023/04/22 01:30:22;;;;;;;4.30;3.23;;;;;;;;;;5011164;28;20190;-75
2023/04/22 01:32:49;;;;;;;4.17;3.77;;;;;;;;;;5010016;28;20188;-75
2023/04/22 01:35:15;;;;;;;4.80;3.90;;;;;;;;;;5010258;28;20297;-75
2023/04/22 01:37:41;;;;;;;3.93;3.60;;;;;;;;;;4991046;28;20184;-75
2023/04/22 01:40:08;;;;;;;3.87;3.47;;;;;;;;;;4995775;28;20661;-75
2023/04/22 01:42:34;;;;;;;4.30;3.57;;;;;;;;;;5000571;28;20211;-75
2023/04/22 01:45:01;;;;;;;5.43;3.80;;;;;;;;;;5006847;28;20234;-75
2023/04/22 01:47:27;;;;;;;3.50;3.20;;;;;;;;;;5009817;28;20195;-75
2023/04/22 01:49:53;;;;;;;3.73;3.33;;;;;;;;;;5011121;28;20183;-75
2023/04/22 01:52:19;;;;;;;4.43;3.60;;;;;;;;;;5005037;28;20187;-74
2023/04/22 01:54:48;;;;;;;4.37;3.93;;;;;;;;;;5007532;28;20302;-75
2023/04/22 01:57:15;;;;;;;5.63;4.40;;;;;;;;;;4993808;28;20673;-75
2023/04/22 01:59:41;;;;;;;4.00;3.60;;;;;;;;;;4993547;28;20183;-75
2023/04/22 02:02:07;;;;;;;3.50;3.20;;;;;;;;;;4982354;28;20215;-75
2023/04/22 02:04:34;;;;;;;4.57;3.77;;;;;;;;;;5009429;28;20200;-76
2023/04/22 02:07:00;;;;;;;6.00;4.73;;;;;;;;;;5006827;28;20257;-75
2023/04/22 02:09:26;;;;;;;6.13;4.47;;;;;;;;;;5013799;28;20183;-75
2023/04/22 02:11:52;;;;;;;14.33;7.80;;;;;;;;;;4994892;28;20195;-75
2023/04/22 02:14:20;;;;;;;18.07;9.70;;;;;;;;;;4993349;28;20192;-75
2023/04/22 02:16:46;;;;;;;11.13;6.63;;;;;;;;;;4995325;28;20184;-75
2023/04/22 02:19:12;;;;;;;7.73;5.37;;;;;;;;;;5014098;28;20186;-75
2023/04/22 02:21:39;;;;;;;5.90;4.50;;;;;;;;;;5013178;28;20233;-75
2023/04/22 02:24:05;;;;;;;6.57;4.63;;;;;;;;;;5012440;28;20659;-75
2023/04/22 02:26:31;;;;;;;4.57;4.17;;;;;;;;;;5014110;28;20663;-75
2023/04/22 02:28:58;;;;;;;5.53;4.93;;;;;;;;;;5012806;28;20277;-75
2023/04/22 02:31:26;;;;;;;6.37;5.63;;;;;;;;;;4999676;28;20187;-75
2023/04/22 02:33:52;;;;;;;5.90;5.40;;;;;;;;;;4977732;28;20513;-75
2023/04/22 02:36:18;;;;;;;7.70;6.33;;;;;;;;;;4987331;28;20286;-75
2023/04/22 02:38:45;;;;;;;7.47;6.77;;;;;;;;;;4992135;28;20191;-75
2023/04/22 02:41:14;;;;;;;7.80;6.17;;;;;;;;;;5003391;28;20212;-75
2023/04/22 02:43:44;;;;;;;5.73;5.17;;;;;;;;;;5002137;28;20659;-75
2023/04/22 02:46:15;;;;;;;7.13;5.30;;;;;;;;;;5011734;28;20207;-75
2023/04/22 02:48:42;;;;;;;6.33;4.60;;;;;;;;;;5006523;28;20180;-75
2023/04/22 02:51:08;;;;;;;5.60;5.07;;;;;;;;;;5006212;28;20188;-75
2023/04/22 02:53:35;;;;;;;6.93;4.57;;;;;;;;;;5002440;28;20198;-75
2023/04/22 02:56:01;;;;;;;7.77;5.00;;;;;;;;;;5012560;28;20214;-75
2023/04/22 02:58:27;;;;;;;5.77;4.87;;;;;;;;;;5003295;28;20183;-75
2023/04/22 03:00:55;;;;;;;6.50;5.30;;;;;;;;;;4992397;28;20631;-75
2023/04/22 03:03:22;;;;;;;6.50;5.73;;;;;;;;;;5002422;28;20214;-75
2023/04/22 03:05:48;;;;;;;7.23;5.50;;;;;;;;;;5011371;28;20195;-75
2023/04/22 03:08:14;;;;;;;9.87;6.40;;;;;;;;;;5009921;28;20180;-75
2023/04/22 03:10:42;;;;;;;7.47;5.47;;;;;;;;;;5010052;28;20266;-75
2023/04/22 03:13:08;;;;;;;6.77;5.27;;;;;;;;;;4981691;28;20238;-75
2023/04/22 03:15:35;;;;;;;6.57;5.97;;;;;;;;;;4992772;28;20222;-75
2023/04/22 03:18:01;;;;;;;5.67;5.10;;;;;;;;;;5005533;28;20195;-75
2023/04/22 03:20:27;;;;;;;7.63;5.50;;;;;;;;;;4997563;28;20541;-75
2023/04/22 03:22:54;;;;;;;6.50;5.80;;;;;;;;;;5007645;28;20214;-75
2023/04/22 03:25:20;;;;;;;5.90;5.30;;;;;;;;;;5011709;28;20210;-75
2023/04/22 03:27:51;;;;;;;6.50;5.67;;;;;;;;;;5011358;28;20191;-75
2023/04/22 03:30:18;;;;;;;6.33;5.67;;;;;;;;;;5011543;28;20269;-75
2023/04/22 03:32:46;;;;;;;6.00;5.40;;;;;;;;;;4994981;28;20317;-75
2023/04/22 03:35:21;;;;;;;6.60;5.27;;;;;;;;;;5001404;28;20219;-75
2023/04/22 03:37:49;;;;;;;6.93;5.37;;;;;;;;;;5001859;28;20184;-75
2023/04/22 03:40:20;;;;;;;7.17;5.73;;;;;;;;;;5011554;28;20407;-75
2023/04/22 03:42:47;;;;;;;10.67;6.97;;;;;;;;;;4998592;28;20211;-74
2023/04/22 03:45:17;;;;;;;7.87;6.37;;;;;;;;;;5011538;28;20286;-75
2023/04/22 03:47:47;;;;;;;8.27;5.80;;;;;;;;;;5009711;28;20662;-75
2023/04/22 03:50:24;;;;;;;5.93;5.30;;;;;;;;;;5003264;28;20183;-75
2023/04/22 03:52:52;;;;;;;6.90;5.73;;;;;;;;;;5009571;28;20198;-75
2023/04/22 03:55:20;;;;;;;6.20;5.60;;;;;;;;;;5011260;28;20231;-75
2023/04/22 03:57:49;;;;;;;7.07;4.97;;;;;;;;;;5011375;28;20938;-75
2023/04/22 04:00:15;;;;;;;11.13;6.80;;;;;;;;;;4993300;28;20246;-75
2023/04/22 04:02:47;;;;;;;9.83;7.07;;;;;;;;;;4989607;28;20216;-75
2023/04/22 04:05:16;;;;;;;7.83;5.90;;;;;;;;;;5004872;28;20253;-75
2023/04/22 04:07:43;;;;;;;7.77;5.77;;;;;;;;;;5008306;28;20176;-75
2023/04/22 04:10:10;;;;;;;7.10;5.73;;;;;;;;;;4999488;28;20324;-74
2023/04/22 04:12:36;;;;;;;8.73;5.60;;;;;;;;;;5010832;28;20215;-74
2023/04/22 04:15:02;;;;;;;6.23;5.27;;;;;;;;;;5011059;28;20206;-74
2023/04/22 04:17:29;;;;;;;6.20;5.60;;;;;;;;;;5010378;28;20604;-75
2023/04/22 04:19:55;;;;;;;6.10;5.27;;;;;;;;;;4993837;28;20229;-75
2023/04/22 04:22:22;;;;;;;5.70;5.00;;;;;;;;;;5006107;28;20734;-75
2023/04/22 04:24:56;;;;;;;5.80;5.07;;;;;;;;;;5005382;28;20208;-74
2023/04/22 04:27:26;;;;;;;5.87;5.27;;;;;;;;;;4992815;28;20184;-74
2023/04/22 04:29:54;;;;;;;5.87;4.87;;;;;;;;;;5007486;28;20195;-74
2023/04/22 04:32:36;;;;;;;6.37;5.20;;;;;;;;;;4979273;28;20183;-75
2023/04/22 04:35:06;;;;;;;6.67;5.80;;;;;;;;;;5008464;28;20322;-76
2023/04/22 04:37:33;;;;;;;6.33;5.33;;;;;;;;;;5011059;28;20183;-75
2023/04/22 04:40:05;;;;;;;7.70;5.73;;;;;;;;;;5010662;28;20182;-75
2023/04/22 04:43:03;;;;;;;9.13;6.50;;;;;;;;;;5002790;28;20219;-75
2023/04/22 04:45:35;;;;;;;9.20;7.30;;;;;;;;;;5010211;28;20293;-75
2023/04/22 04:48:02;;;;;;;8.43;6.47;;;;;;;;;;5008914;28;20198;-75
2023/04/22 04:50:34;;;;;;;7.40;6.37;;;;;;;;;;5006741;28;20190;-75
2023/04/22 04:53:02;;;;;;;7.00;6.30;;;;;;;;;;5011104;28;20175;-75
2023/04/22 04:55:36;;;;;;;9.40;6.57;;;;;;;;;;5009961;28;20203;-75
2023/04/22 04:58:06;;;;;;;11.30;6.40;;;;;;;;;;5010213;28;20592;-74
2023/04/22 05:00:33;;;;;;;7.10;6.40;;;;;;;;;;5010283;28;20186;-74
2023/04/22 05:02:59;;;;;;;8.03;6.40;;;;;;;;;;5003864;28;20331;-75
2023/04/22 05:05:25;;;;;;;6.23;5.63;;;;;;;;;;5009633;28;20274;-74
2023/04/22 05:07:52;;;;;;;6.93;5.70;;;;;;;;;;5009907;28;20197;-74
2023/04/22 05:10:20;;;;;;;6.83;6.10;;;;;;;;;;4993541;28;20191;-75
2023/04/22 05:12:46;;;;;;;8.30;7.10;;;;;;;;;;5009725;28;20538;-75
2023/04/22 05:15:19;;;;;;;9.73;6.67;;;;;;;;;;5010079;28;20205;-75
2023/04/22 05:17:45;;;;;;;7.17;6.13;;;;;;;;;;5009851;28;20187;-75
2023/04/22 05:20:12;;;;;;;8.37;6.60;;;;;;;;;;4992684;28;20210;-74
2023/04/22 05:22:42;;;;;;;7.20;6.20;;;;;;;;;;5005599;28;20212;-75
2023/04/22 05:25:08;;;;;;;7.80;6.60;;;;;;;;;;5012859;28;20226;-75
2023/04/22 05:27:35;;;;;;;7.63;6.33;;;;;;;;;;5016635;28;20170;-75
2023/04/22 05:30:03;;;;;;;8.97;7.57;;;;;;;;;;5015344;28;20194;-75
2023/04/22 05:32:31;;;;;;;8.93;6.93;;;;;;;;;;5030397;28;20340;-75
2023/04/22 05:34:57;;;;;;;7.33;6.40;;;;;;;;;;5014247;28;20229;-74
2023/04/22 05:37:23;;;;;;;7.37;6.00;;;;;;;;;;4980800;28;20187;-75
2023/04/22 05:39:50;;;;;;;8.67;6.77;;;;;;;;;;5013580;28;20199;-75
2023/04/22 05:42:16;;;;;;;12.67;7.30;;;;;;;;;;5016775;28;20203;-75
2023/04/22 05:44:43;;;;;;;9.03;6.90;;;;;;;;;;5000058;28;20203;-75
2023/04/22 05:47:09;;;;;;;8.73;7.17;;;;;;;;;;4998254;28;20312;-75
2023/04/22 05:49:35;;;;;;;8.67;6.93;;;;;;;;;;5009557;28;20659;-75
2023/04/22 05:52:04;;;;;;;10.03;6.50;;;;;;;;;;5016323;28;20179;-75
2023/04/22 05:54:41;;;;;;;9.63;7.07;;;;;;;;;;5011572;28;20272;-75
2023/04/22 05:57:08;;;;;;;11.63;8.00;;;;;;;;;;5016013;28;20243;-75
2023/04/22 05:59:34;;;;;;;12.57;7.70;;;;;;;;;;4999588;28;20179;-75
2023/04/22 06:02:00;;;;;;;11.93;7.40;;;;;;;;;;4991652;28;20585;-75
2023/04/22 06:04:26;;;;;;;8.57;7.27;;;;;;;;;;5005477;28;20261;-75
2023/04/22 06:06:53;;;;;;;7.90;7.10;;;;;;;;;;5015544;28;20225;-75
2023/04/22 06:09:20;;;;;;;8.07;6.87;;;;;;;;;;5017626;28;20202;-77
2023/04/22 06:11:46;;;;;;;11.53;7.23;;;;;;;;;;5001998;28;20184;-76
2023/04/22 06:14:12;;;;;;;9.03;7.57;;;;;;;;;;5000123;28;20264;-76
2023/04/22 06:16:41;;;;;;;9.03;6.87;;;;;;;;;;5015422;28;20284;-77
2023/04/22 06:19:07;;;;;;;8.13;7.27;;;;;;;;;;4996248;28;20566;-75
2023/04/22 06:21:35;;;;;;;8.37;7.53;;;;;;;;;;4989992;28;20694;-76
2023/04/22 06:24:03;;;;;;;9.23;8.17;;;;;;;;;;5015723;28;20187;-74
2023/04/22 06:26:29;;;;;;;9.47;8.27;;;;;;;;;;5012385;28;20195;-75
2023/04/22 06:28:55;;;;;;;8.27;7.47;;;;;;;;;;5015421;28;20237;-75
2023/04/22 06:31:21;;;;;;;10.00;8.20;;;;;;;;;;5013997;28;20272;-77
2023/04/22 06:33:48;;;;;;;9.87;8.40;;;;;;;;;;5008953;28;20187;-75
2023/04/22 06:36:14;;;;;;;9.03;8.10;;;;;;;;;;5003672;28;20208;-75
2023/04/22 06:38:42;;;;;;;9.77;7.70;;;;;;;;;;5005060;28;20179;-75
2023/04/22 06:41:35;;;;;;;9.80;8.27;;;;;;;;;;5011694;28;20865;-74
2023/04/22 06:44:09;;;;;;;10.33;9.27;;;;;;;;;;5012070;28;20258;-74
2023/04/22 06:46:55;;;;;;;10.50;8.20;;;;;;;;;;5000924;28;20230;-75
2023/04/22 06:49:43;;;;;;;9.90;8.20;;;;;;;;;;5007347;28;20650;-75
2023/04/22 06:52:36;;;;;;;10.53;8.57;;;;;;;;;;5007391;28;20199;-74
2023/04/22 06:55:03;;;;;;;10.93;8.90;;;;;;;;;;5007099;28;20238;-74
2023/04/22 06:57:30;;;;;;;8.87;7.97;;;;;;;;;;5011474;28;20735;-74
2023/04/22 06:59:56;;;;;;;8.87;7.60;;;;;;;;;;5004280;28;20583;-74
2023/04/22 07:02:25;;;;;;;11.33;9.50;;;;;;;;;;5013034;28;20268;-74
2023/04/22 07:04:51;;;;;;;12.07;9.50;;;;;;;;;;5016376;28;20273;-74
2023/04/22 07:07:18;;;;;;;11.33;9.37;;;;;;;;;;5011390;28;20534;-74
2023/04/22 07:09:44;;;;;;;9.73;8.43;;;;;;;;;;5016097;28;20185;-73
2023/04/22 07:12:10;;;;;;;9.93;8.33;;;;;;;;;;5014435;28;20211;-73
2023/04/22 07:14:37;;;;;;;9.67;8.27;;;;;;;;;;5012847;28;20208;-73
2023/04/22 07:17:03;;;;;;;8.17;7.30;;;;;;;;;;5012329;28;20688;-76
2023/04/22 07:19:29;;;;;;;8.77;7.40;;;;;;;;;;5015224;28;20188;-74
2023/04/22 07:21:55;;;;;;;11.83;9.13;;;;;;;;;;5014565;28;20199;-74
2023/04/22 07:24:22;;;;;;;10.80;9.20;;;;;;;;;;5016875;28;20607;-74
2023/04/22 07:26:48;;;;;;;11.07;8.87;;;;;;;;;;5016867;28;20221;-74
2023/04/22 07:29:14;;;;;;;10.60;8.40;;;;;;;;;;5024522;28;20179;-74
2023/04/22 07:31:40;;;;;;;9.43;7.83;;;;;;;;;;5029805;28;20322;-74
2023/04/22 07:34:08;;;;;;;8.03;7.23;;;;;;;;;;5022769;28;20199;-74
2023/04/22 07:36:34;;;;;;;8.30;7.03;;;;;;;;;;5016517;28;20697;-75
2023/04/22 07:39:00;;;;;;;9.23;7.77;;;;;;;;;;5011339;28;20186;-75
2023/04/22 07:41:26;;;;;;;8.43;7.23;;;;;;;;;;5009583;28;20214;-75
2023/04/22 07:43:52;;;;;;;10.20;7.43;;;;;;;;;;5005422;28;20217;-75
2023/04/22 07:46:18;;;;;;;9.63;6.60;;;;;;;;;;5003655;28;20242;-77
2023/04/22 07:48:45;;;;;;;8.37;7.53;;;;;;;;;;5011238;28;20627;-74
2023/04/22 07:51:11;;;;;;;11.47;8.93;;;;;;;;;;5008487;28;20215;-75
2023/04/22 07:53:37;;;;;;;9.40;8.23;;;;;;;;;;5006516;28;20230;-75
2023/04/22 07:56:03;;;;;;;12.10;10.13;;;;;;;;;;5010417;28;20288;-75
2023/04/22 07:58:29;;;;;;;12.80;11.07;;;;;;;;;;5012037;28;20282;-75
2023/04/22 08:00:55;;;;;;;17.00;12.10;;;;;;;;;;5012052;28;20568;-74
2023/04/22 08:03:22;;;;;;;17.67;13.73;;;;;;;;;;5006557;28;20210;-74
2023/04/22 08:05:48;;;;;;;13.80;11.47;;;;;;;;;;5012557;28;20246;-74
2023/04/22 08:08:15;;;;;;;11.67;9.47;;;;;;;;;;5001855;28;20190;-74
2023/04/22 08:10:41;;;;;;;10.87;9.37;;;;;;;;;;5001096;28;20186;-74
2023/04/22 08:13:07;;;;;;;9.33;8.40;;;;;;;;;;4994742;28;20273;-74
2023/04/22 08:15:33;;;;;;;9.80;8.53;;;;;;;;;;4991694;28;20210;-74
2023/04/22 08:17:59;;;;;;;9.63;8.03;;;;;;;;;;4999796;28;20175;-74
2023/04/22 08:20:25;;;;;;;8.03;7.23;;;;;;;;;;5007339;28;20183;-75
2023/04/22 08:22:56;;;;;;;8.70;7.60;;;;;;;;;;5009966;28;20262;-75
2023/04/22 08:25:22;;;;;;;7.77;6.97;;;;;;;;;;5012415;28;20195;-75
2023/04/22 08:27:50;;;;;;;7.87;6.93;;;;;;;;;;5012480;28;20179;-75
2023/04/22 08:30:16;;;;;;;7.73;6.17;;;;;;;;;;5010882;28;20186;-75
2023/04/22 08:32:42;;;;;;;7.03;6.20;;;;;;;;;;5011752;28;20270;-75
2023/04/22 08:35:08;;;;;;;8.17;5.30;;;;;;;;;;5011181;28;20230;-75
2023/04/22 08:37:34;;;;;;;6.00;5.40;;;;;;;;;;5008515;28;20225;-76
2023/04/22 08:40:01;;;;;;;7.60;6.10;;;;;;;;;;5027746;28;20187;-75
2023/04/22 08:42:27;;;;;;;7.07;6.40;;;;;;;;;;5005031;28;20214;-75
2023/04/22 08:44:53;;;;;;;7.47;5.83;;;;;;;;;;5010748;28;20206;-75
2023/04/22 08:47:20;;;;;;;6.23;5.57;;;;;;;;;;5011403;28;20194;-75
2023/04/22 08:49:47;;;;;;;6.63;5.93;;;;;;;;;;5011182;28;20228;-75
2023/04/22 08:52:14;;;;;;;6.57;5.83;;;;;;;;;;5011730;28;20563;-75
2023/04/22 08:54:41;;;;;;;6.60;6.00;;;;;;;;;;5011035;28;20618;-75
2023/04/22 08:57:09;;;;;;;8.10;6.03;;;;;;;;;;5007919;28;20198;-75
2023/04/22 08:59:37;;;;;;;5.53;5.03;;;;;;;;;;5007209;28;20184;-75
2023/04/22 09:02:04;;;;;;;6.07;5.47;;;;;;;;;;5009420;28;20641;-75
2023/04/22 09:04:30;;;;;;;5.67;4.90;;;;;;;;;;5011563;28;20171;-75
2023/04/22 09:06:56;;;;;;;5.43;4.80;;;;;;;;;;4994403;28;20225;-75
2023/04/22 09:09:23;;;;;;;6.80;5.00;;;;;;;;;;5009681;28;20286;-75
2023/04/22 09:11:49;;;;;;;7.67;5.00;;;;;;;;;;5009784;28;20270;-75
2023/04/22 09:14:16;;;;;;;5.17;4.67;;;;;;;;;;5009832;28;20620;-75
2023/04/22 09:16:46;;;;;;;4.97;4.57;;;;;;;;;;5010518;28;20197;-75
2023/04/22 09:19:13;;;;;;;5.17;4.67;;;;;;;;;;5011122;28;20175;-75
2023/04/22 09:21:40;;;;;;;4.97;4.57;;;;;;;;;;5011330;28;20211;-76
2023/04/22 09:24:07;;;;;;;4.97;4.23;;;;;;;;;;5008888;28;20248;-75
2023/04/22 09:26:33;;;;;;;5.10;4.67;;;;;;;;;;5009747;28;20209;-76
2023/04/22 09:28:59;;;;;;;4.80;4.40;;;;;;;;;;5011314;28;20206;-75
2023/04/22 09:31:29;;;;;;;4.47;4.07;;;;;;;;;;5009733;28;20219;-76
2023/04/22 09:33:57;;;;;;;6.33;4.27;;;;;;;;;;5006956;28;20219;-76
2023/04/22 09:36:36;;;;;;;5.70;4.00;;;;;;;;;;5008381;28;20210;-76
2023/04/22 09:39:07;;;;;;;4.40;4.00;;;;;;;;;;5005503;28;20273;-76
2023/04/22 09:41:40;;;;;;;5.63;4.07;;;;;;;;;;5000663;28;20663;-75
2023/04/22 09:44:13;;;;;;;4.77;4.20;;;;;;;;;;5006560;28;20179;-76
2023/04/22 09:46:41;;;;;;;5.03;4.00;;;;;;;;;;5007467;28;20302;-76
2023/04/22 09:49:07;;;;;;;4.90;3.97;;;;;;;;;;5009816;28;20277;-76
2023/04/22 09:51:33;;;;;;;4.20;3.80;;;;;;;;;;5010677;28;20194;-75
2023/04/22 09:54:08;;;;;;;5.10;4.20;;;;;;;;;;5010800;28;20270;-76
2023/04/22 09:56:48;;;;;;;4.63;4.23;;;;;;;;;;5009583;28;20277;-76
2023/04/22 09:59:19;;;;;;;5.77;4.60;;;;;;;;;;5004753;28;20270;-76
2023/04/22 10:01:46;;;;;;;4.43;4.03;;;;;;;;;;5003272;28;20222;-76
2023/04/22 10:04:14;;;;;;;4.67;4.10;;;;;;;;;;5010898;28;20181;-76
2023/04/22 10:06:40;;;;;;;6.10;4.37;;;;;;;;;;5010872;28;20184;-76
2023/04/22 10:09:07;;;;;;;4.40;4.00;;;;;;;;;;5011400;28;20179;-76
2023/04/22 10:11:33;;;;;;;5.27;3.70;;;;;;;;;;5012068;28;20643;-76
2023/04/22 10:14:00;;;;;;;4.67;3.50;;;;;;;;;;5010862;28;20599;-76
2023/04/22 10:16:26;;;;;;;3.80;3.50;;;;;;;;;;5006268;28;20238;-76
2023/04/22 10:18:54;;;;;;;4.67;3.50;;;;;;;;;;5012411;28;20699;-76
2023/04/22 10:21:20;;;;;;;4.40;3.50;;;;;;;;;;5014283;28;20179;-76
2023/04/22 10:23:47;;;;;;;3.77;3.13;;;;;;;;;;5014102;28;20186;-76
2023/04/22 10:26:33;;;;;;;3.00;2.80;;;;;;;;;;5014543;28;20244;-76
2023/04/22 10:29:00;;;;;;;3.10;2.80;;;;;;;;;;5005921;28;20301;-76
2023/04/22 10:31:26;;;;;;;2.80;2.60;;;;;;;;;;5011310;28;20286;-76
2023/04/22 10:34:08;;;;;;;3.23;2.80;;;;;;;;;;5013610;28;20187;-76
2023/04/22 10:36:34;;;;;;;3.10;2.80;;;;;;;;;;5014230;28;20214;-76
2023/04/22 10:39:01;;;;;;;2.40;2.20;;;;;;;;;;5014164;28;20194;-76
2023/04/22 10:41:31;;;;;;;3.03;2.60;;;;;;;;;;5013918;28;20211;-76
2023/04/22 10:43:59;;;;;;;2.80;2.50;;;;;;;;;;5012257;28;20175;-76
2023/04/22 10:46:36;;;;;;;2.60;2.40;;;;;;;;;;5010494;28;20667;-76
2023/04/22 10:49:12;;;;;;;2.73;2.53;;;;;;;;;;4994749;28;20187;-76
2023/04/22 10:51:42;;;;;;;5.13;2.40;;;;;;;;;;4994615;28;20180;-76
2023/04/22 10:54:27;;;;;;;2.83;2.40;;;;;;;;;;4994161;28;20172;-76
2023/04/22 10:57:02;;;;;;;3.97;2.57;;;;;;;;;;4998553;28;20215;-76
2023/04/22 10:59:28;;;;;;;3.27;2.80;;;;;;;;;;5008163;28;20617;-76
2023/04/22 11:01:54;;;;;;;2.87;2.40;;;;;;;;;;5009333;28;20223;-75
2023/04/22 11:04:24;;;;;;;3.07;2.57;;;;;;;;;;5012999;28;20212;-75
2023/04/22 11:07:10;;;;;;;2.70;2.40;;;;;;;;;;4996511;28;20184;-75
2023/04/22 11:09:40;;;;;;;5.33;2.80;;;;;;;;;;5011557;28;20215;-75
2023/04/22 11:12:25;;;;;;;3.20;2.60;;;;;;;;;;5009746;28;20599;-76
2023/04/22 11:14:51;;;;;;;2.67;2.33;;;;;;;;;;5007945;28;20691;-75
2023/04/22 11:17:18;;;;;;;3.53;2.60;;;;;;;;;;5009560;28;20191;-75
2023/04/22 11:19:46;;;;;;;4.70;2.70;;;;;;;;;;5013560;28;20251;-75
2023/04/22 11:22:12;;;;;;;3.70;2.47;;;;;;;;;;5011267;28;20350;-76
2023/04/22 11:24:39;;;;;;;3.43;2.30;;;;;;;;;;5013099;28;20197;-76
2023/04/22 11:27:05;;;;;;;2.87;2.50;;;;;;;;;;5002940;28;20279;-76
2023/04/22 11:29:31;;;;;;;2.40;2.20;;;;;;;;;;5005949;28;20264;-76
2023/04/22 11:31:57;;;;;;;5.87;2.50;;;;;;;;;;5007409;28;20195;-77
2023/04/22 11:34:23;;;;;;;3.43;2.30;;;;;;;;;;5008254;28;20192;-75
2023/04/22 11:36:49;;;;;;;2.53;2.20;;;;;;;;;;5012933;28;20734;-76
2023/04/22 11:39:17;;;;;;;3.50;2.37;;;;;;;;;;4999941;28;20197;-75
2023/04/22 11:41:43;;;;;;;3.37;2.30;;;;;;;;;;5008009;28;20356;-74
2023/04/22 11:44:09;;;;;;;2.43;2.20;;;;;;;;;;5007175;28;20191;-75
2023/04/22 11:46:38;;;;;;;2.33;2.13;;;;;;;;;;5000053;28;20210;-75
2023/04/22 11:49:14;;;;;;;2.90;2.00;;;;;;;;;;5006649;28;20188;-75
2023/04/22 11:51:53;;;;;;;2.60;2.17;;;;;;;;;;5009906;28;20645;-75
2023/04/22 11:54:30;;;;;;;2.33;1.97;;;;;;;;;;5006776;28;20191;-75
2023/04/22 11:56:56;;;;;;;2.60;2.07;;;;;;;;;;4995241;28;20217;-76
2023/04/22 11:59:25;;;;;;;3.33;2.10;;;;;;;;;;5008501;28;20212;-75
2023/04/22 12:01:51;;;;;;;2.40;2.20;;;;;;;;;;5007888;28;20221;-77
2023/04/22 12:04:20;;;;;;;5.00;2.20;;;;;;;;;;5006081;28;20189;-76
2023/04/22 12:06:46;;;;;;;4.07;2.33;;;;;;;;;;5008333;28;20199;-76
2023/04/22 12:09:13;;;;;;;2.43;2.10;;;;;;;;;;4999489;28;20187;-76
2023/04/22 12:11:39;;;;;;;4.30;2.00;;;;;;;;;;5006881;28;20191;-76
2023/04/22 12:14:05;;;;;;;3.57;1.97;;;;;;;;;;5003102;28;20540;-76
2023/04/22 12:16:40;;;;;;;2.30;2.10;;;;;;;;;;5004563;28;20210;-78
2023/04/22 12:19:06;;;;;;;3.00;2.17;;;;;;;;;;5018085;28;20182;-77
2023/04/22 12:21:32;;;;;;;2.27;2.00;;;;;;;;;;5018008;28;20204;-77
2023/04/22 12:23:59;;;;;;;3.63;2.20;;;;;;;;;;5019401;28;20197;-77
2023/04/22 12:26:27;;;;;;;2.90;2.10;;;;;;;;;;5018364;28;20225;-77
2023/04/22 12:28:53;;;;;;;3.17;2.00;;;;;;;;;;5019289;28;20222;-80
2023/04/22 12:31:20;;;;;;;2.07;1.97;;;;;;;;;;5017989;28;20176;-78
2023/04/22 12:33:47;;;;;;;2.40;2.00;;;;;;;;;;5009095;28;20579;-77
2023/04/22 12:36:14;;;;;;;3.93;2.07;;;;;;;;;;5007867;28;20213;-77
2023/04/22 12:38:40;;;;;;;2.67;2.30;;;;;;;;;;5013143;28;20591;-76
2023/04/22 12:41:07;;;;;;;3.67;2.20;;;;;;;;;;5014321;28;20180;-77
2023/04/22 12:43:35;;;;;;;4.03;2.30;;;;;;;;;;5012943;28;20216;-77
2023/04/22 12:46:02;;;;;;;2.83;2.00;;;;;;;;;;4994834;28;20218;-77
2023/04/22 12:48:28;;;;;;;2.23;2.03;;;;;;;;;;5012634;28;20182;-77
2023/04/22 12:50:56;;;;;;;3.97;2.40;;;;;;;;;;4998171;28;20191;-77
2023/04/22 12:53:22;;;;;;;4.37;2.30;;;;;;;;;;5006205;28;20248;-79
2023/04/22 12:55:48;;;;;;;2.50;2.30;;;;;;;;;;4998547;28;20293;-77
2023/04/22 12:58:15;;;;;;;3.20;2.10;;;;;;;;;;5019966;28;20238;-77
2023/04/22 13:00:41;;;;;;;3.50;2.10;;;;;;;;;;5021586;28;20182;-77
2023/04/22 13:03:07;;;;;;;3.97;2.10;;;;;;;;;;5020030;28;20211;-78
2023/04/22 13:05:33;;;;;;;5.27;2.17;;;;;;;;;;5018681;28;20232;-77
2023/04/22 13:08:00;;;;;;;3.03;1.90;;;;;;;;;;5012322;28;20659;-77
2023/04/22 13:10:27;;;;;;;3.33;2.20;;;;;;;;;;5015318;28;20250;-74
2023/04/22 13:12:54;;;;;;;3.70;2.50;;;;;;;;;;5011112;28;20753;-74
2023/04/22 13:15:21;;;;;;;4.07;2.20;;;;;;;;;;5011142;28;20207;-73
2023/04/22 13:17:47;;;;;;;2.50;2.10;;;;;;;;;;4998222;28;20187;-74
2023/04/22 13:20:15;;;;;;;3.37;2.40;;;;;;;;;;5017119;28;20208;-74
2023/04/22 13:22:46;;;;;;;2.97;2.23;;;;;;;;;;5014840;28;20272;-75
2023/04/22 13:25:15;;;;;;;3.23;2.50;;;;;;;;;;5013448;28;20295;-75
2023/04/22 13:27:42;;;;;;;4.27;2.50;;;;;;;;;;5018252;28;20223;-74
2023/04/22 13:30:09;;;;;;;4.63;2.90;;;;;;;;;;5011958;28;20179;-74
2023/04/22 13:32:35;;;;;;;3.97;2.77;;;;;;;;;;5013559;28;20222;-74
2023/04/22 13:35:01;;;;;;;3.93;3.00;;;;;;;;;;5010817;28;20321;-76
2023/04/22 13:37:27;;;;;;;3.03;2.70;;;;;;;;;;5015607;28;20190;-75
2023/04/22 13:39:53;;;;;;;3.97;2.30;;;;;;;;;;5018563;28;20278;-75
2023/04/22 13:42:20;;;;;;;3.80;2.53;;;;;;;;;;4998622;28;20202;-75
2023/04/22 13:44:46;;;;;;;3.27;2.60;;;;;;;;;;5020191;28;20208;-75
2023/04/22 13:47:12;;;;;;;2.67;2.47;;;;;;;;;;5020339;28;20265;-75
2023/04/22 13:49:38;;;;;;;7.10;4.70;;;;;;;;;;5013107;28;20832;-75
2023/04/22 13:52:04;;;;;;;10.33;6.97;;;;;;;;;;5014727;28;20334;-75
2023/04/22 13:54:30;;;;;;;8.10;6.10;;;;;;;;;;5016134;28;20207;-75
2023/04/22 13:56:57;;;;;;;6.30;5.10;;;;;;;;;;5016334;28;20655;-75
2023/04/22 13:59:23;;;;;;;7.13;4.63;;;;;;;;;;5009539;28;20211;-75
2023/04/22 14:01:49;;;;;;;6.93;3.80;;;;;;;;;;5021436;28;20217;-75
2023/04/22 14:04:15;;;;;;;7.17;3.60;;;;;;;;;;5009873;28;20232;-75
2023/04/22 14:06:41;;;;;;;4.80;2.90;;;;;;;;;;5017059;28;20670;-74
2023/04/22 14:09:07;;;;;;;3.47;2.67;;;;;;;;;;5010970;28;20183;-75
2023/04/22 14:11:34;;;;;;;4.13;2.30;;;;;;;;;;5013610;28;20690;-74
2023/04/22 14:14:00;;;;;;;3.20;2.10;;;;;;;;;;5011119;28;20273;-74
2023/04/22 14:16:26;;;;;;;5.10;2.20;;;;;;;;;;5019492;28;21759;-74
2023/04/22 14:18:54;;;;;;;4.63;2.20;;;;;;;;;;5021087;28;20209;-73
2023/04/22 14:21:20;;;;;;;2.57;2.00;;;;;;;;;;5018187;28;20195;-74
2023/04/22 14:23:46;;;;;;;5.97;2.40;;;;;;;;;;5020398;28;20202;-74
2023/04/22 14:26:12;;;;;;;2.90;1.73;;;;;;;;;;5019097;28;20256;-74
2023/04/22 14:28:39;;;;;;;3.03;1.80;;;;;;;;;;5017075;28;20318;-73
2023/04/22 14:31:05;;;;;;;3.20;1.70;;;;;;;;;;5019436;28;20190;-75
2023/04/22 14:33:31;;;;;;;2.37;1.80;;;;;;;;;;5017652;28;20190;-74
2023/04/22 14:35:58;;;;;;;2.80;1.50;;;;;;;;;;5015019;28;20223;-74
2023/04/22 14:38:24;;;;;;;5.10;1.77;;;;;;;;;;5014123;28;20183;-76
2023/04/22 14:40:50;;;;;;;2.27;1.70;;;;;;;;;;5011084;28;20195;-74
2023/04/22 14:43:17;;;;;;;4.30;1.60;;;;;;;;;;5023777;28;20332;-74
2023/04/22 14:45:43;;;;;;;2.47;1.50;;;;;;;;;;5003335;28;20735;-74